• Join FlightAware (Why Join?)
  • Login
  • US Flag 
09:46AM EDT


 

Airport Tracker/Info


-or-


 

Live Flight TrackerFlight Track Log ✈ N411ST ✈ 28-Jul-2013 ✈ KSAT - KDAL

Flight Track Log - Related Links

Times and Time Zones

All times are in EDT time to prevent confusion due to time zone crossing. See the N411ST flight status page for this flight to view local times or setup timezone preferences in your user account.

Time Position Orientation Groundspeed Altitude Reporting Facility
EDT Latitude Longitude Course Direction KTS MPH feet Rate Location/Type
05:26PM 29.5247 -98.4636 110° East 160 184 1,800  Level Houston Center
05:27PM 29.5008 -98.3872 110° East 253 291 6,200 3,540 Climbing Houston Center
05:28PM 29.5667 -98.3597 20° North 276 318 9,800 2,460 Climbing Houston Center
05:29PM 29.6528 -98.3622 359° North 292 336 11,100 2,040 Climbing Houston Center
05:30PM 29.7456 -98.3686 357° North 333 383 14,100 2,760 Climbing Houston Center
05:31PM 29.8453 -98.3758 356° North 357 411 16,900 2,460 Climbing Houston Center
05:32PM 29.9619 -98.3839 357° North 389 448 19,200 2,220 Climbing Houston Center
05:33PM 30.0736 -98.3917 357° North 402 463 21,500 2,220 Climbing Houston Center
05:34PM 30.2000 -98.3794 North 421 484 23,800 1,980 Climbing Houston Center
05:35PM 30.3069 -98.3647 North 426 490 25,700 1,980 Climbing Houston Center
05:36PM 30.4467 -98.3433 North 436 502 27,900 1,920 Climbing Houston Center
05:37PM 30.5711 -98.3244 North 443 510 29,700 1,500 Climbing Houston Center
05:38PM 30.6986 -98.3064 North 451 519 31,000 600 Climbing Houston Center
05:39PM 30.8317 -98.2878 North 468 539 31,000  Level Houston Center
05:40PM 30.9644 -98.2672 North 474 545 31,000  Level Houston Center
05:41PM 31.0969 -98.2481 North 474 545 31,000 -720 Level Houston Center
05:42PM 31.2306 -98.2278 North 475 547 29,600 -1,680 Descending Houston Center
05:43PM 31.3614 -98.2072 North 469 540 27,600 -1,980 Descending Houston Center
05:44PM 31.4811 -98.1458 24° Northeast 464 534 25,600 -1,800 Descending Houston Center
05:45PM 31.5939 -98.0736 29° Northeast 458 527 24,000 -1,800 Descending Houston Center
05:46PM 31.7231 -97.9911 29° Northeast 448 516 22,000 -1,800 Descending Houston Center
05:47PM 31.8314 -97.9231 28° Northeast 438 504 20,400 -1,500 Descending Houston Center
05:48PM 31.9381 -97.8544 29° Northeast 432 497 18,900 -1,500 Descending Houston Center
05:49PM 32.0411 -97.7872 29° Northeast 422 486 17,400 -1,500 Descending Houston Center
05:50PM 32.1369 -97.7258 28° Northeast 402 463 15,900 -1,440 Descending Houston Center
05:52PM 32.2333 -97.6647 28° Northeast 391 450 14,500 -1,380 Descending Houston Center
05:53PM 32.3286 -97.6003 30° Northeast 391 450 13,100 -1,320 Descending Houston Center
05:54PM 32.4075 -97.5511 28° Northeast 337 388 11,900 -1,080 Descending Fort Worth Center
05:55PM 32.4867 -97.4872 34° Northeast 312 359 11,000 -480 Descending Fort Worth Center
05:56PM 32.5411 -97.4208 46° Northeast 302 348 11,000  Level Fort Worth Center
05:57PM 32.6078 -97.3394 46° Northeast 302 348 11,000  Level Fort Worth Center
05:58PM 32.6600 -97.2778 45° Northeast 302 348 11,000  Level Fort Worth Center
05:59PM 32.7183 -97.2061 46° Northeast 279 321 11,000 -180 Level Fort Worth Center
06:00PM 32.7850 -97.1761 21° North 249 287 10,700 -1,200 Descending Fort Worth Center
06:01PM 32.8519 -97.1786 358° North 237 273 8,600 -2,040 Descending Fort Worth Center
06:02PM 32.9042 -97.1339 36° Northeast 216 249 6,600 -1,860 Descending Fort Worth Center
06:03PM 32.9247 -97.0644 71° East 200 230 4,900 -1,320 Descending Fort Worth Center
06:04PM 32.9433 -97.0050 70° East 192 221 4,000 -1,200 Descending Fort Worth Center
06:05PM 32.9369 -96.9506 98° East 166 191 2,500 -1,020 Descending Fort Worth Center
06:06PM 32.9000 -96.9000 131° Southeast 124 143 1,600 -660 Descending Dallas / Fort Worth TRACON
06:07PM 32.8667 -96.8667 140° Southeast 124 143 900 -720 Descending Dallas / Fort Worth TRACON
06:09PM 32.8471 -96.8518 108° East  Level Estimated
06:16PM 32.8471 -96.8518 108° East  Level Estimated